createdAt,value
2023-02-17T00:00:40.802Z,6.53
2023-02-17T00:03:08.458Z,7.10
2023-02-17T00:05:39.704Z,6.53
2023-02-17T00:08:07.302Z,5.70
2023-02-17T00:10:34.839Z,6.90
2023-02-17T00:13:03.834Z,6.05
2023-02-17T00:15:32.140Z,5.95
2023-02-17T00:18:00.022Z,6.70
2023-02-17T00:20:30.865Z,6.68
2023-02-17T00:22:58.417Z,5.88
2023-02-17T00:25:26.272Z,5.55
2023-02-17T00:27:53.865Z,6.50
2023-02-17T00:30:22.931Z,6.68
2023-02-17T00:32:50.521Z,6.63
2023-02-17T00:35:18.333Z,6.85
2023-02-17T00:37:45.936Z,6.68
2023-02-17T00:40:14.218Z,6.75
2023-02-17T00:42:41.892Z,6.13
2023-02-17T00:45:10.064Z,6.72
2023-02-17T00:47:39.081Z,6.70
2023-02-17T00:50:08.183Z,7.22
2023-02-17T00:52:35.960Z,7.30
2023-02-17T00:55:03.538Z,7.55
2023-02-17T00:57:32.328Z,7.25
2023-02-17T01:00:00.258Z,5.40
2023-02-17T01:02:27.802Z,7.80
2023-02-17T01:04:56.791Z,8.20
2023-02-17T01:07:24.453Z,7.70
2023-02-17T01:09:51.980Z,7.32
2023-02-17T01:12:19.544Z,7.10
2023-02-17T01:14:47.153Z,6.78
2023-02-17T01:17:14.738Z,7.05
2023-02-17T01:19:42.381Z,6.70
2023-02-17T01:22:11.923Z,6.78
2023-02-17T01:24:39.840Z,7.25
2023-02-17T01:27:07.494Z,7.05
2023-02-17T01:29:35.067Z,6.70
2023-02-17T01:32:02.766Z,7.13
2023-02-17T01:34:30.355Z,6.97
2023-02-17T01:36:58.026Z,6.45
2023-02-17T01:39:26.961Z,7.60
2023-02-17T01:41:54.592Z,7.00
2023-02-17T01:44:24.097Z,6.70
2023-02-17T01:46:53.177Z,7.15
2023-02-17T01:49:30.877Z,6.95
2023-02-17T01:52:05.950Z,7.20
2023-02-17T01:54:40.573Z,6.53
2023-02-17T01:57:08.419Z,7.18
2023-02-17T01:59:37.684Z,6.80
2023-02-17T02:02:07.312Z,7.13
2023-02-17T02:04:38.856Z,6.47
2023-02-17T02:07:11.254Z,6.57
2023-02-17T02:09:44.437Z,6.50
2023-02-17T02:12:23.501Z,6.55
2023-02-17T02:14:53.511Z,6.50
2023-02-17T02:17:34.213Z,6.70
2023-02-17T02:20:24.165Z,6.10
2023-02-17T02:23:14.071Z,5.90
2023-02-17T02:26:12.800Z,6.07
2023-02-17T02:29:00.224Z,6.00
2023-02-17T02:31:38.715Z,5.88
2023-02-17T02:34:11.020Z,5.88
2023-02-17T02:36:42.887Z,6.00
2023-02-17T02:39:13.970Z,5.90
2023-02-17T02:41:45.103Z,5.65
2023-02-17T02:44:15.758Z,6.27
2023-02-17T02:46:43.332Z,5.60
2023-02-17T02:49:12.935Z,5.70
2023-02-17T02:51:50.431Z,5.88
2023-02-17T02:54:34.506Z,6.00
2023-02-17T02:57:18.798Z,6.18
2023-02-17T03:00:00.944Z,5.80
2023-02-17T03:02:33.673Z,5.63
2023-02-17T03:05:11.031Z,5.85
2023-02-17T03:07:44.016Z,5.88
2023-02-17T03:10:12.031Z,6.07
2023-02-17T03:12:40.180Z,5.80
2023-02-17T03:15:16.188Z,5.90
2023-02-17T03:17:43.724Z,5.22
2023-02-17T03:20:14.718Z,5.40
2023-02-17T03:22:46.086Z,5.53
2023-02-17T03:25:14.100Z,5.35
2023-02-17T03:27:41.738Z,5.40
2023-02-17T03:30:11.100Z,5.32
2023-02-17T03:32:38.739Z,5.50
2023-02-17T03:35:07.127Z,4.55
2023-02-17T03:37:36.310Z,5.75
2023-02-17T03:40:04.195Z,5.25
2023-02-17T03:42:31.875Z,5.28
2023-02-17T03:44:59.407Z,5.20
2023-02-17T03:47:27.267Z,5.15
2023-02-17T03:49:54.945Z,5.18
2023-02-17T03:52:22.745Z,5.13
2023-02-17T03:54:52.627Z,5.05
2023-02-17T03:57:20.254Z,4.70
2023-02-17T03:59:47.829Z,4.90
2023-02-17T04:02:15.596Z,4.73
2023-02-17T04:04:43.210Z,4.50
2023-02-17T04:07:10.814Z,4.22
2023-02-17T04:09:38.425Z,4.23
2023-02-17T04:12:07.585Z,4.30
2023-02-17T04:14:35.245Z,4.25
2023-02-17T04:17:02.862Z,4.10
2023-02-17T04:19:30.485Z,3.50
2023-02-17T04:21:58.185Z,3.83
2023-02-17T04:24:25.741Z,3.70
2023-02-17T04:26:53.481Z,3.55
2023-02-17T04:29:22.426Z,3.70
2023-02-17T04:31:50.184Z,3.60
2023-02-17T04:34:17.829Z,3.60
2023-02-17T04:36:45.437Z,3.40
2023-02-17T04:39:13.101Z,3.30
2023-02-17T04:41:40.788Z,3.40
2023-02-17T04:44:08.322Z,3.30
2023-02-17T04:46:37.181Z,3.22
2023-02-17T04:49:04.799Z,3.03
2023-02-17T04:51:32.473Z,3.10
2023-02-17T04:53:59.983Z,2.90
2023-02-17T04:56:27.657Z,2.63
2023-02-17T04:58:55.180Z,2.60
2023-02-17T05:01:22.806Z,2.45
2023-02-17T05:03:51.713Z,2.58
2023-02-17T05:06:19.350Z,2.30
2023-02-17T05:08:48.165Z,2.25
2023-02-17T05:11:15.725Z,2.30
2023-02-17T05:13:43.302Z,2.20
2023-02-17T05:16:10.927Z,2.20
2023-02-17T05:18:38.822Z,1.98
2023-02-17T05:21:07.868Z,2.10
2023-02-17T05:23:41.031Z,1.80
2023-02-17T05:26:09.448Z,1.70
2023-02-17T05:28:37.715Z,1.58
2023-02-17T05:31:06.493Z,1.90
2023-02-17T05:33:34.464Z,1.80
2023-02-17T05:36:04.306Z,1.70
2023-02-17T05:38:33.965Z,1.50
2023-02-17T05:41:01.768Z,1.70
2023-02-17T05:43:29.657Z,1.52
2023-02-17T05:45:57.407Z,1.60
2023-02-17T05:48:25.239Z,1.60
2023-02-17T05:50:52.785Z,1.65
2023-02-17T05:53:20.321Z,1.77
2023-02-17T05:55:49.266Z,1.55
2023-02-17T05:58:17.052Z,1.70
2023-02-17T06:00:45.231Z,2.50
2023-02-17T06:03:12.854Z,1.98
2023-02-17T06:05:40.753Z,1.83
2023-02-17T06:08:09.024Z,2.35
2023-02-17T06:10:36.568Z,1.80
2023-02-17T06:13:05.523Z,1.70
2023-02-17T06:15:33.779Z,2.40
2023-02-17T06:18:01.349Z,1.50
2023-02-17T06:20:29.180Z,1.42
2023-02-17T06:22:56.882Z,1.63
2023-02-17T06:25:24.451Z,1.80
2023-02-17T06:27:51.975Z,1.60
2023-02-17T06:30:21.400Z,1.45
2023-02-17T06:32:49.237Z,1.70
2023-02-17T06:35:17.358Z,1.60
2023-02-17T06:37:44.960Z,1.70
2023-02-17T06:40:13.149Z,1.52
2023-02-17T06:42:40.737Z,1.80
2023-02-17T06:45:09.481Z,1.45
2023-02-17T06:47:38.457Z,1.50
2023-02-17T06:50:07.362Z,1.42
2023-02-17T06:52:34.949Z,1.70
2023-02-17T06:55:03.032Z,1.60
2023-02-17T06:57:30.626Z,1.20
2023-02-17T06:59:58.163Z,1.50
2023-02-17T07:02:25.816Z,2.10
2023-02-17T07:04:54.783Z,1.80
2023-02-17T07:07:22.399Z,1.48
2023-02-17T07:09:50.091Z,1.40
2023-02-17T07:12:17.711Z,1.33
2023-02-17T07:14:45.227Z,1.38
2023-02-17T07:17:12.740Z,1.30
2023-02-17T07:19:40.300Z,1.48
2023-02-17T07:22:09.233Z,1.20
2023-02-17T07:24:36.778Z,1.33
2023-02-17T07:27:05.962Z,1.20
2023-02-17T07:29:33.769Z,1.27
2023-02-17T07:32:01.749Z,1.67
2023-02-17T07:34:29.707Z,1.80
2023-02-17T07:36:57.303Z,1.50
2023-02-17T07:39:26.508Z,1.40
2023-02-17T07:41:54.071Z,1.60
2023-02-17T07:44:21.694Z,1.30
2023-02-17T07:46:49.367Z,1.20
2023-02-17T07:49:17.717Z,1.77
2023-02-17T07:51:45.519Z,1.60
2023-02-17T07:54:14.117Z,1.58
2023-02-17T07:56:43.069Z,1.58
2023-02-17T07:59:10.872Z,1.60
2023-02-17T08:01:38.938Z,1.40
2023-02-17T08:04:06.672Z,1.70
2023-02-17T08:06:34.257Z,1.40
2023-02-17T08:09:19.927Z,1.63
2023-02-17T08:12:06.676Z,1.40
2023-02-17T08:14:34.251Z,1.65
2023-02-17T08:17:01.816Z,1.58
2023-02-17T08:19:39.674Z,1.52
2023-02-17T08:22:14.465Z,1.37
2023-02-17T08:24:42.129Z,1.08
2023-02-17T08:27:11.093Z,1.15
2023-02-17T08:29:38.748Z,1.50
2023-02-17T08:32:06.997Z,1.40
2023-02-17T08:34:35.793Z,1.50
2023-02-17T08:37:04.709Z,1.70
2023-02-17T08:39:34.442Z,1.65
2023-02-17T08:42:02.646Z,1.90
2023-02-17T08:44:31.700Z,1.80
2023-02-17T08:46:59.330Z,1.70
2023-02-17T08:49:28.464Z,1.83
2023-02-17T08:51:56.055Z,1.75
2023-02-17T08:54:23.638Z,1.80
2023-02-17T08:56:51.225Z,1.95
2023-02-17T08:59:18.825Z,2.42
2023-02-17T09:01:47.805Z,2.10
2023-02-17T09:04:16.563Z,2.40
2023-02-17T09:06:46.897Z,2.33
2023-02-17T09:09:17.074Z,2.25
2023-02-17T09:11:45.445Z,1.95
2023-02-17T09:14:13.495Z,2.35
2023-02-17T09:16:41.781Z,2.42
2023-02-17T09:19:10.847Z,1.98
2023-02-17T09:21:38.846Z,2.13
2023-02-17T09:24:07.080Z,2.30
2023-02-17T09:26:36.126Z,2.67
2023-02-17T09:29:04.950Z,2.63
2023-02-17T09:31:32.966Z,2.28
2023-02-17T09:34:00.600Z,2.40
2023-02-17T09:36:31.809Z,2.45
2023-02-17T09:38:59.871Z,2.65
2023-02-17T09:41:33.003Z,2.90
2023-02-17T09:44:01.394Z,2.17
2023-02-17T09:46:32.882Z,2.22
2023-02-17T09:49:08.966Z,2.40
2023-02-17T09:51:43.985Z,2.05
2023-02-17T09:54:17.193Z,2.40
2023-02-17T09:56:48.402Z,2.50
2023-02-17T09:59:20.402Z,1.83
2023-02-17T10:01:50.586Z,2.00
2023-02-17T10:04:22.322Z,2.38
2023-02-17T10:06:54.658Z,1.92
2023-02-17T10:09:30.415Z,1.58
2023-02-17T10:12:03.975Z,1.63
2023-02-17T10:14:37.908Z,1.60
2023-02-17T10:17:11.439Z,1.67
2023-02-17T10:19:45.943Z,1.50
2023-02-17T10:22:19.231Z,1.10
2023-02-17T10:24:47.087Z,1.20
2023-02-17T10:27:29.440Z,1.40
2023-02-17T10:30:11.476Z,1.30
2023-02-17T10:32:50.698Z,1.35
2023-02-17T10:35:23.854Z,1.30
2023-02-17T10:38:00.347Z,1.42
2023-02-17T10:40:29.990Z,1.50
2023-02-17T10:43:00.945Z,1.60
2023-02-17T10:45:32.918Z,2.10
2023-02-17T10:48:07.824Z,1.95
2023-02-17T10:50:37.663Z,1.95
2023-02-17T10:53:15.364Z,1.70
2023-02-17T10:55:55.893Z,1.55
2023-02-17T10:58:28.715Z,1.57
2023-02-17T11:00:57.564Z,1.35
2023-02-17T11:03:27.563Z,1.90
2023-02-17T11:05:58.159Z,1.90
2023-02-17T11:08:32.542Z,1.50
2023-02-17T11:11:03.456Z,1.50
2023-02-17T11:13:35.631Z,1.85
2023-02-17T11:16:04.619Z,1.30
2023-02-17T11:18:35.412Z,1.70
2023-02-17T11:21:06.655Z,1.35
2023-02-17T11:23:37.332Z,1.50
2023-02-17T11:26:11.166Z,1.20
2023-02-17T11:28:38.806Z,1.40
2023-02-17T11:31:07.278Z,1.27
2023-02-17T11:33:37.799Z,1.02
2023-02-17T11:36:08.325Z,1.03
2023-02-17T11:38:45.537Z,1.20
2023-02-17T11:41:13.380Z,1.00
2023-02-17T11:43:52.641Z,1.30
2023-02-17T11:46:29.322Z,1.05
2023-02-17T11:49:37.123Z,0.90
2023-02-17T11:52:20.870Z,1.30
2023-02-17T11:55:03.026Z,1.10
2023-02-17T11:57:39.346Z,1.50
2023-02-17T12:00:17.795Z,0.90
2023-02-17T12:03:28.686Z,1.10
2023-02-17T12:06:07.149Z,1.00
2023-02-17T12:08:46.359Z,1.10
2023-02-17T12:11:23.346Z,1.10
2023-02-17T12:14:02.565Z,1.08
2023-02-17T12:16:41.051Z,1.45
2023-02-17T12:19:29.746Z,1.10
2023-02-17T12:22:30.099Z,1.08
2023-02-17T12:25:19.217Z,1.20
2023-02-17T12:28:01.328Z,1.10
2023-02-17T12:30:43.972Z,1.20
2023-02-17T12:33:32.680Z,1.00
2023-02-17T12:36:04.558Z,1.00
2023-02-17T12:38:34.382Z,1.10
2023-02-17T12:41:07.928Z,0.95
2023-02-17T12:43:43.175Z,1.00
2023-02-17T12:46:13.784Z,1.20
2023-02-17T12:48:46.882Z,0.90
2023-02-17T12:51:22.116Z,0.95
2023-02-17T12:53:54.754Z,0.95
2023-02-17T12:56:59.543Z,0.90
2023-02-17T12:59:34.381Z,1.00
2023-02-17T13:02:06.831Z,0.95
2023-02-17T13:04:36.073Z,1.00
2023-02-17T13:07:21.325Z,1.20
2023-02-17T13:09:50.602Z,0.80
2023-02-17T13:12:35.385Z,1.00
2023-02-17T13:15:08.283Z,0.90
2023-02-17T13:17:39.738Z,1.05
2023-02-17T13:20:27.232Z,1.10
2023-02-17T13:23:06.668Z,1.08
2023-02-17T13:25:37.625Z,1.20
2023-02-17T13:28:35.309Z,1.10
2023-02-17T13:31:18.947Z,1.20
2023-02-17T13:33:52.349Z,1.10
2023-02-17T13:36:34.704Z,1.08
2023-02-17T13:39:05.068Z,1.08
2023-02-17T13:41:44.984Z,1.10
2023-02-17T13:44:28.607Z,1.00
2023-02-17T13:47:00.700Z,1.20
2023-02-17T13:49:32.914Z,1.08
2023-02-17T13:52:12.577Z,0.95
2023-02-17T13:54:41.852Z,1.20
2023-02-17T13:57:23.795Z,1.20
2023-02-17T13:59:51.379Z,1.27
2023-02-17T14:02:35.393Z,1.30
2023-02-17T14:05:16.624Z,1.30
2023-02-17T14:07:47.365Z,1.20
2023-02-17T14:10:24.732Z,1.55
2023-02-17T14:12:53.239Z,1.30
2023-02-17T14:15:23.432Z,1.45
2023-02-17T14:17:52.461Z,1.40
2023-02-17T14:20:35.358Z,1.45
2023-02-17T14:23:06.144Z,1.42
2023-02-17T14:25:36.421Z,1.55
2023-02-17T14:28:05.422Z,1.60
2023-02-17T14:30:35.691Z,1.55
2023-02-17T14:33:06.957Z,1.70
2023-02-17T14:35:36.174Z,1.60
2023-02-17T14:38:19.849Z,1.80
2023-02-17T14:40:47.787Z,1.90
2023-02-17T14:43:15.520Z,2.13
2023-02-17T14:45:43.358Z,1.90
2023-02-17T14:48:12.514Z,2.17
2023-02-17T14:50:42.845Z,2.22
2023-02-17T14:53:14.707Z,1.75
2023-02-17T14:55:46.986Z,2.17
2023-02-17T14:58:19.981Z,3.88
2023-02-17T15:00:47.974Z,3.07
2023-02-17T15:03:17.168Z,3.13
2023-02-17T15:05:45.627Z,3.25
2023-02-17T15:08:15.874Z,3.75
2023-02-17T15:10:43.983Z,3.03
2023-02-17T15:13:14.787Z,5.53
2023-02-17T15:15:44.846Z,2.38
2023-02-17T15:18:12.860Z,3.05
2023-02-17T15:20:43.736Z,2.63
2023-02-17T15:23:14.293Z,5.32
2023-02-17T15:25:42.645Z,2.50
2023-02-17T15:28:13.281Z,2.53
2023-02-17T15:30:41.070Z,2.80
2023-02-17T15:33:12.824Z,5.53
2023-02-17T15:35:43.103Z,9.73
2023-02-17T15:38:12.697Z,3.28
2023-02-17T15:40:40.846Z,4.72
2023-02-17T15:43:14.487Z,4.70
2023-02-17T15:45:42.342Z,3.20
2023-02-17T15:48:14.100Z,6.03
2023-02-17T15:50:43.026Z,3.97
2023-02-17T15:53:11.042Z,3.63
2023-02-17T15:55:40.510Z,4.00
2023-02-17T15:58:15.125Z,3.13
2023-02-17T16:00:42.768Z,4.32
2023-02-17T16:03:11.912Z,4.32
2023-02-17T16:05:39.548Z,5.30
2023-02-17T16:08:09.258Z,4.17
2023-02-17T16:10:39.527Z,4.45
2023-02-17T16:13:07.892Z,3.13
2023-02-17T16:15:37.498Z,7.40
2023-02-17T16:18:05.265Z,9.55
2023-02-17T16:20:34.961Z,5.15
2023-02-17T16:23:03.277Z,3.30
2023-02-17T16:25:32.304Z,2.78
2023-02-17T16:27:59.949Z,3.33
2023-02-17T16:30:31.724Z,3.63
2023-02-17T16:32:59.541Z,4.97
2023-02-17T16:35:29.252Z,3.58
2023-02-17T16:37:59.564Z,3.30
2023-02-17T16:40:30.055Z,4.10
2023-02-17T16:42:59.287Z,3.63
2023-02-17T16:45:29.532Z,2.10
2023-02-17T16:47:58.913Z,1.95
2023-02-17T16:50:28.853Z,2.25
2023-02-17T16:52:58.528Z,3.60
2023-02-17T16:55:31.151Z,2.00
2023-02-17T16:58:00.600Z,1.90
2023-02-17T17:00:30.540Z,1.90
2023-02-17T17:02:58.929Z,2.13
2023-02-17T17:05:28.197Z,2.97
2023-02-17T17:07:56.384Z,2.47
2023-02-17T17:10:26.512Z,5.72
2023-02-17T17:12:54.302Z,4.55
2023-02-17T17:15:23.284Z,4.28
2023-02-17T17:17:56.556Z,2.47
2023-02-17T17:20:30.808Z,1.50
2023-02-17T17:22:59.113Z,3.15
2023-02-17T17:25:28.025Z,1.55
2023-02-17T17:27:55.995Z,4.53
2023-02-17T17:30:27.175Z,7.28
2023-02-17T17:32:55.047Z,7.57
2023-02-17T17:35:22.767Z,5.57
2023-02-17T17:37:50.898Z,2.85
2023-02-17T17:40:21.110Z,20.45
2023-02-17T17:42:48.659Z,9.90
2023-02-17T17:45:16.639Z,2.20
2023-02-17T17:47:46.266Z,3.25
2023-02-17T17:50:17.827Z,16.77
2023-02-17T17:52:45.532Z,11.95
2023-02-17T17:55:14.019Z,4.85
2023-02-17T17:57:42.260Z,2.28
2023-02-17T18:00:13.953Z,5.10
2023-02-17T18:02:41.527Z,3.30
2023-02-17T18:05:10.736Z,2.03
2023-02-17T18:07:39.671Z,2.70
2023-02-17T18:10:10.356Z,3.90
2023-02-17T18:12:38.744Z,6.07
2023-02-17T18:15:08.138Z,2.13
2023-02-17T18:17:39.702Z,1.73
2023-02-17T18:20:11.235Z,2.30
2023-02-17T18:22:39.000Z,1.40
2023-02-17T18:25:07.126Z,2.10
2023-02-17T18:27:39.365Z,1.92
2023-02-17T18:30:08.937Z,1.65
2023-02-17T18:32:36.523Z,2.05
2023-02-17T18:35:04.776Z,3.95
2023-02-17T18:37:34.287Z,6.28
2023-02-17T18:40:02.198Z,3.05
2023-02-17T18:42:29.937Z,3.80
2023-02-17T18:44:57.843Z,1.75
2023-02-17T18:47:25.799Z,1.50
2023-02-17T18:49:53.562Z,1.65
2023-02-17T18:52:21.090Z,2.10
2023-02-17T18:54:51.232Z,1.70
2023-02-17T18:57:18.844Z,2.05
2023-02-17T18:59:46.534Z,4.43
2023-02-17T19:02:14.269Z,2.28
2023-02-17T19:04:41.845Z,1.98
2023-02-17T19:07:09.589Z,2.20
2023-02-17T19:09:39.539Z,2.30
2023-02-17T19:12:13.311Z,2.60
2023-02-17T19:14:42.283Z,2.10
2023-02-17T19:17:11.303Z,2.33
2023-02-17T19:19:39.613Z,2.33
2023-02-17T19:22:08.743Z,2.53
2023-02-17T19:24:37.078Z,2.70
2023-02-17T19:27:05.152Z,2.78
2023-02-17T19:29:34.756Z,2.72
2023-02-17T19:32:03.675Z,4.00
2023-02-17T19:34:32.267Z,2.50
2023-02-17T19:36:59.987Z,4.75
2023-02-17T19:39:27.648Z,4.50
2023-02-17T19:41:55.263Z,10.07
2023-02-17T19:44:23.035Z,7.95
2023-02-17T19:46:53.889Z,9.43
2023-02-17T19:49:21.663Z,3.92
2023-02-17T19:51:49.981Z,11.25
2023-02-17T19:54:17.867Z,9.43
2023-02-17T19:56:45.678Z,11.63
2023-02-17T19:59:14.271Z,14.07
2023-02-17T20:01:43.388Z,8.98
2023-02-17T20:04:12.783Z,9.23
2023-02-17T20:06:43.196Z,7.43
2023-02-17T20:09:14.729Z,9.55
2023-02-17T20:11:43.151Z,10.90
2023-02-17T20:14:13.372Z,6.07
2023-02-17T20:16:41.602Z,6.40
2023-02-17T20:19:09.842Z,7.55
2023-02-17T20:21:39.903Z,11.50
2023-02-17T20:24:07.868Z,7.97
2023-02-17T20:26:40.723Z,10.38
2023-02-17T20:29:08.757Z,5.05
2023-02-17T20:31:37.998Z,3.70
2023-02-17T20:34:07.808Z,11.07
2023-02-17T20:36:36.291Z,11.13
2023-02-17T20:39:05.422Z,4.40
2023-02-17T20:41:33.544Z,5.20
2023-02-17T20:44:02.911Z,7.20
2023-02-17T20:46:31.116Z,11.07
2023-02-17T20:48:59.031Z,9.45
2023-02-17T20:51:26.977Z,9.90
2023-02-17T20:53:55.080Z,4.80
2023-02-17T20:56:33.719Z,10.45
2023-02-17T20:59:02.111Z,3.15
2023-02-17T21:01:30.805Z,9.60
2023-02-17T21:03:58.667Z,12.45
2023-02-17T21:06:29.228Z,5.60
2023-02-17T21:08:59.255Z,5.50
2023-02-17T21:11:29.203Z,10.17
2023-02-17T21:13:57.414Z,9.98
2023-02-17T21:16:27.372Z,6.10
2023-02-17T21:18:55.096Z,4.45
2023-02-17T21:21:22.633Z,5.63
2023-02-17T21:23:50.364Z,7.90
2023-02-17T21:26:18.284Z,4.53
2023-02-17T21:28:48.018Z,5.50
2023-02-17T21:31:16.964Z,5.25
2023-02-17T21:33:44.855Z,6.72
2023-02-17T21:36:14.082Z,5.70
2023-02-17T21:38:41.818Z,10.18
2023-02-17T21:41:11.926Z,9.63
2023-02-17T21:43:58.205Z,4.57
2023-02-17T21:46:28.051Z,3.38
2023-02-17T21:48:56.260Z,4.90
2023-02-17T21:51:24.594Z,3.30
2023-02-17T21:53:53.530Z,4.10
2023-02-17T21:56:22.346Z,5.65
2023-02-17T21:58:51.707Z,11.52
2023-02-17T22:01:19.792Z,15.68
2023-02-17T22:03:48.819Z,18.58
2023-02-17T22:06:18.226Z,9.35
2023-02-17T22:08:46.060Z,14.17
2023-02-17T22:11:18.850Z,10.60
2023-02-17T22:13:47.061Z,4.00
2023-02-17T22:16:15.244Z,14.02
2023-02-17T22:18:43.031Z,9.43
2023-02-17T22:21:14.267Z,11.95
2023-02-17T22:23:43.163Z,7.80
2023-02-17T22:26:13.732Z,6.30
2023-02-17T22:28:41.656Z,8.02
2023-02-17T22:31:09.860Z,5.70
2023-02-17T22:33:37.461Z,6.68
2023-02-17T22:36:07.652Z,8.88
2023-02-17T22:38:37.304Z,12.77
2023-02-17T22:41:07.492Z,6.22
2023-02-17T22:43:36.273Z,7.63
2023-02-17T22:46:04.870Z,8.82
2023-02-17T22:48:33.843Z,5.25
2023-02-17T22:51:06.123Z,6.90
2023-02-17T22:53:34.771Z,5.45
2023-02-17T22:56:05.538Z,5.30
2023-02-17T22:58:33.794Z,5.00
2023-02-17T23:01:05.627Z,5.57
2023-02-17T23:03:33.676Z,5.68
2023-02-17T23:06:01.680Z,5.70
2023-02-17T23:08:29.684Z,5.87
2023-02-17T23:10:57.351Z,5.73
2023-02-17T23:13:26.476Z,6.05
2023-02-17T23:15:54.051Z,5.20
2023-02-17T23:18:21.953Z,5.40
2023-02-17T23:20:51.562Z,6.10
2023-02-17T23:23:20.273Z,5.97
2023-02-17T23:25:50.955Z,5.93
2023-02-17T23:28:19.975Z,6.18
2023-02-17T23:30:49.837Z,5.85
2023-02-17T23:33:18.934Z,5.90
2023-02-17T23:35:47.793Z,5.95
2023-02-17T23:38:17.161Z,5.72
2023-02-17T23:40:49.005Z,5.72
2023-02-17T23:43:17.130Z,6.28
2023-02-17T23:45:45.035Z,5.80
2023-02-17T23:48:14.022Z,6.32
2023-02-17T23:50:41.876Z,5.57
2023-02-17T23:53:10.375Z,6.07
2023-02-17T23:55:37.970Z,6.28
2023-02-17T23:58:05.573Z,5.90
